Time;durP1;ratioP1;P1;durP2;ratioP2;P2;SDS_P1;SDS_P2;PMS_P1;PMS_P2;Temp;Humidity;BMP_temperature;BMP_pressure;BME280_temperature;BME280_humidity;BME280_pressure;Samples;Min_cycle;Max_cycle;Signal;HPM_P1;HPM_P2
2023/12/31 00:00:13;;;;;;;0.37;0.37;;;6.70;99.90;;;;;;4375942;32;20083;-73
2023/12/31 00:02:38;;;;;;;0.40;0.40;;;6.70;99.90;;;;;;4376262;32;20094;-73
2023/12/31 00:05:05;;;;;;;0.40;0.40;;;6.70;99.90;;;;;;4375151;32;20102;-73
2023/12/31 00:07:31;;;;;;;0.40;0.40;;;6.80;99.90;;;;;;4374459;32;20127;-73
2023/12/31 00:09:56;;;;;;;2.17;1.25;;;6.70;99.90;;;;;;4374945;32;20130;-73
2023/12/31 00:12:22;;;;;;;0.30;0.30;;;6.80;99.90;;;;;;4374754;32;20074;-72
2023/12/31 00:14:47;;;;;;;0.70;0.55;;;6.80;99.90;;;;;;4374468;32;20075;-73
2023/12/31 00:17:13;;;;;;;0.40;0.40;;;6.90;99.90;;;;;;4374451;32;20082;-73
2023/12/31 00:19:38;;;;;;;3.90;0.93;;;6.90;99.90;;;;;;4376395;32;20133;-72
2023/12/31 00:22:04;;;;;;;0.73;0.50;;;6.90;99.90;;;;;;4377996;32;20479;-71
2023/12/31 00:24:29;;;;;;;0.37;0.37;;;7.00;99.90;;;;;;4379874;32;20137;-72
2023/12/31 00:26:54;;;;;;;1.20;0.60;;;6.90;99.90;;;;;;4371900;32;20078;-71
2023/12/31 00:29:20;;;;;;;0.45;0.45;;;7.00;99.90;;;;;;4374361;32;20099;-71
2023/12/31 00:31:45;;;;;;;1.92;0.95;;;7.00;99.90;;;;;;4374626;32;20131;-71
2023/12/31 00:34:11;;;;;;;1.25;1.15;;;6.90;99.90;;;;;;4375588;32;20078;-72
2023/12/31 00:36:36;;;;;;;0.40;0.40;;;6.90;99.90;;;;;;4372587;32;20070;-73
2023/12/31 00:39:02;;;;;;;0.50;0.50;;;6.90;99.90;;;;;;4378199;32;20086;-72
2023/12/31 00:41:28;;;;;;;0.47;0.47;;;6.80;99.90;;;;;;4376573;32;20079;-72
2023/12/31 00:43:53;;;;;;;0.65;0.50;;;6.80;99.90;;;;;;4376559;32;20144;-72
2023/12/31 00:46:19;;;;;;;0.20;0.20;;;6.80;99.90;;;;;;4373757;32;20650;-73
2023/12/31 00:48:44;;;;;;;0.28;0.28;;;6.70;99.90;;;;;;4371555;32;20075;-73
2023/12/31 00:51:10;;;;;;;1.77;0.82;;;6.70;99.90;;;;;;4375606;32;20087;-72
2023/12/31 00:53:36;;;;;;;0.47;0.47;;;6.60;99.90;;;;;;4376991;32;20145;-72
2023/12/31 00:56:02;;;;;;;1.75;0.68;;;6.50;99.90;;;;;;4371075;32;20087;-72
2023/12/31 00:58:27;;;;;;;0.28;0.28;;;6.50;99.90;;;;;;4373207;32;20079;-72
2023/12/31 01:00:53;;;;;;;0.50;0.50;;;6.50;99.90;;;;;;4373527;32;20074;-72
2023/12/31 01:03:19;;;;;;;0.40;0.40;;;6.50;99.90;;;;;;4373618;32;20127;-73
2023/12/31 01:05:45;;;;;;;0.30;0.30;;;6.50;99.90;;;;;;4376322;32;20071;-72
2023/12/31 01:08:11;;;;;;;1.73;0.62;;;6.40;99.90;;;;;;4371207;32;20510;-72
2023/12/31 01:10:36;;;;;;;0.22;0.22;;;6.30;99.90;;;;;;4373721;32;20063;-72
2023/12/31 01:13:02;;;;;;;0.30;0.30;;;6.30;99.90;;;;;;4372935;32;20444;-73
2023/12/31 01:15:28;;;;;;;0.28;0.28;;;6.30;99.90;;;;;;4373563;32;20058;-72
2023/12/31 01:17:53;;;;;;;0.32;0.32;;;6.30;99.90;;;;;;4373143;32;20423;-69
2023/12/31 01:20:19;;;;;;;2.28;0.82;;;6.30;99.90;;;;;;4377327;32;20078;-70
2023/12/31 01:22:44;;;;;;;0.35;0.35;;;6.20;99.90;;;;;;4377471;32;20169;-70
2023/12/31 01:25:10;;;;;;;0.30;0.30;;;6.20;99.90;;;;;;4378020;32;20071;-70
2023/12/31 01:27:35;;;;;;;0.30;0.30;;;6.10;99.90;;;;;;4376834;32;20075;-70
2023/12/31 01:30:01;;;;;;;0.30;0.30;;;6.00;99.90;;;;;;4376890;32;20083;-71
2023/12/31 01:32:27;;;;;;;0.30;0.30;;;6.00;99.90;;;;;;4362489;32;20083;-72
2023/12/31 01:34:56;;;;;;;0.40;0.40;;;5.90;99.90;;;;;;4371464;32;20069;-72
2023/12/31 01:37:21;;;;;;;0.40;0.40;;;6.00;99.90;;;;;;4370459;32;20523;-71
2023/12/31 01:39:47;;;;;;;0.30;0.30;;;6.00;99.90;;;;;;4373416;32;20141;-70
2023/12/31 01:42:13;;;;;;;0.40;0.40;;;6.00;99.90;;;;;;4372152;32;20065;-70
2023/12/31 01:44:38;;;;;;;0.43;0.43;;;6.00;99.90;;;;;;4370445;32;20118;-71
2023/12/31 01:47:05;;;;;;;0.30;0.30;;;6.00;99.90;;;;;;4372878;32;20553;-73
2023/12/31 01:49:32;;;;;;;0.40;0.40;;;6.00;99.90;;;;;;4370140;32;20127;-73
2023/12/31 01:51:58;;;;;;;0.30;0.30;;;6.00;99.90;;;;;;4369266;32;20095;-74
2023/12/31 01:54:24;;;;;;;0.68;0.68;;;6.00;99.90;;;;;;4367666;32;20074;-73
2023/12/31 01:56:51;;;;;;;0.40;0.40;;;5.90;99.90;;;;;;4367105;32;20137;-73
2023/12/31 01:59:17;;;;;;;0.30;0.30;;;5.90;99.90;;;;;;4369394;32;20523;-73
2023/12/31 02:04:09;;;;;;;0.37;0.28;;;5.80;99.90;;;;;;4371533;32;20507;-74
2023/12/31 02:06:35;;;;;;;0.47;0.47;;;5.80;99.90;;;;;;4367175;32;20067;-73
2023/12/31 02:09:00;;;;;;;2.08;1.15;;;5.70;99.90;;;;;;4369253;32;20594;-73
2023/12/31 02:11:26;;;;;;;0.40;0.40;;;5.80;99.90;;;;;;4369472;32;20091;-73
2023/12/31 02:13:51;;;;;;;0.50;0.47;;;5.70;99.90;;;;;;4367035;32;20535;-72
2023/12/31 02:16:17;;;;;;;0.52;0.50;;;5.60;99.90;;;;;;4372206;32;20535;-73
2023/12/31 02:18:43;;;;;;;0.73;0.73;;;5.60;99.90;;;;;;4368675;32;20091;-73
2023/12/31 02:21:12;;;;;;;3.60;0.90;;;5.60;99.90;;;;;;4367798;32;20121;-73
2023/12/31 02:23:38;;;;;;;0.30;0.30;;;5.50;99.90;;;;;;4364950;32;20099;-73
2023/12/31 02:26:11;;;;;;;5.32;1.55;;;5.50;99.90;;;;;;4367587;32;20071;-73
2023/12/31 02:28:37;;;;;;;0.50;0.50;;;5.60;99.90;;;;;;4373224;32;20141;-70
2023/12/31 02:31:04;;;;;;;0.60;0.60;;;5.70;99.90;;;;;;4375804;32;20556;-70
2023/12/31 02:33:30;;;;;;;0.90;0.43;;;5.60;99.90;;;;;;4376054;32;20086;-70
2023/12/31 02:35:55;;;;;;;0.40;0.40;;;5.50;99.90;;;;;;4373942;32;20166;-70
2023/12/31 02:38:21;;;;;;;1.10;0.65;;;5.50;99.90;;;;;;4375284;32;20086;-70
2023/12/31 02:40:46;;;;;;;2.95;1.00;;;5.40;99.90;;;;;;4374676;32;21638;-70
2023/12/31 02:43:11;;;;;;;0.43;0.43;;;5.40;99.90;;;;;;4376884;32;20074;-70
2023/12/31 02:45:37;;;;;;;2.05;1.08;;;5.30;99.90;;;;;;4375814;32;20074;-70
2023/12/31 02:48:03;;;;;;;0.60;0.60;;;5.40;99.90;;;;;;4373219;32;20094;-71
2023/12/31 02:50:31;;;;;;;0.50;0.50;;;5.40;99.90;;;;;;4375794;32;20074;-70
2023/12/31 02:52:56;;;;;;;0.70;0.70;;;5.40;99.90;;;;;;4375219;32;20552;-70
2023/12/31 02:55:22;;;;;;;0.30;0.30;;;5.40;99.90;;;;;;4374656;32;20134;-70
2023/12/31 02:57:47;;;;;;;0.45;0.45;;;5.40;99.90;;;;;;4373627;32;20107;-72
2023/12/31 03:00:13;;;;;;;0.45;0.45;;;5.40;99.90;;;;;;4374216;32;20086;-72
2023/12/31 03:02:40;;;;;;;0.40;0.40;;;5.30;99.90;;;;;;4373560;32;20078;-72
2023/12/31 03:05:07;;;;;;;0.68;0.68;;;5.40;99.90;;;;;;4374511;32;20137;-72
2023/12/31 03:07:33;;;;;;;0.75;0.73;;;5.50;99.90;;;;;;4372924;32;20846;-72
2023/12/31 03:09:59;;;;;;;2.95;1.33;;;5.50;99.90;;;;;;4372835;32;20174;-72
2023/12/31 03:12:24;;;;;;;0.60;0.60;;;5.50;99.90;;;;;;4370998;32;20466;-72
2023/12/31 03:14:50;;;;;;;0.98;0.82;;;5.50;99.90;;;;;;4373100;32;20087;-72
2023/12/31 03:17:15;;;;;;;0.40;0.40;;;5.50;99.90;;;;;;4370799;32;20082;-72
2023/12/31 03:19:41;;;;;;;59.72;1.52;;;5.60;99.90;;;;;;4372197;32;20141;-72
2023/12/31 03:22:06;;;;;;;0.30;0.30;;;5.50;99.90;;;;;;4374777;32;20082;-72
2023/12/31 03:24:32;;;;;;;0.30;0.30;;;5.30;99.90;;;;;;4373965;32;20078;-72
2023/12/31 03:26:57;;;;;;;0.40;0.40;;;5.30;99.90;;;;;;4371704;32;20063;-72
2023/12/31 03:29:23;;;;;;;0.50;0.50;;;5.20;99.90;;;;;;4374288;32;20411;-72
2023/12/31 03:31:48;;;;;;;0.65;0.65;;;5.20;99.90;;;;;;4372460;32;20412;-72
2023/12/31 03:34:14;;;;;;;1.35;1.10;;;5.10;99.90;;;;;;4371728;32;20126;-72
2023/12/31 03:36:39;;;;;;;0.40;0.40;;;5.00;99.90;;;;;;4375223;32;20526;-73
2023/12/31 03:39:05;;;;;;;0.52;0.52;;;4.90;99.90;;;;;;4371451;32;20144;-73
2023/12/31 03:41:31;;;;;;;0.32;0.32;;;4.90;99.90;;;;;;4374854;32;20067;-74
2023/12/31 03:43:56;;;;;;;0.40;0.40;;;4.90;99.90;;;;;;4374699;32;20077;-73
2023/12/31 03:46:23;;;;;;;0.30;0.30;;;4.90;99.90;;;;;;4374536;32;20069;-73
2023/12/31 03:48:48;;;;;;;0.90;0.60;;;4.90;99.90;;;;;;4375266;32;20514;-73
2023/12/31 03:51:14;;;;;;;2.00;0.93;;;4.80;99.90;;;;;;4374189;32;20071;-73
2023/12/31 03:53:41;;;;;;;1.00;1.00;;;4.80;99.90;;;;;;4374587;32;20553;-73
2023/12/31 03:56:08;;;;;;;0.55;0.55;;;4.70;99.90;;;;;;4376867;32;20070;-73
2023/12/31 03:58:34;;;;;;;0.30;0.30;;;4.70;99.90;;;;;;4375623;32;20061;-73
2023/12/31 04:01:00;;;;;;;0.30;0.30;;;4.70;99.90;;;;;;4374086;32;20423;-73
2023/12/31 04:03:25;;;;;;;0.40;0.40;;;4.70;99.90;;;;;;4376155;32;20090;-73
2023/12/31 04:05:52;;;;;;;0.45;0.45;;;4.70;99.90;;;;;;4377757;32;20130;-73
2023/12/31 04:08:17;;;;;;;4.85;1.65;;;4.60;99.90;;;;;;4375102;32;20074;-70
2023/12/31 04:10:43;;;;;;;6.80;2.50;;;4.70;99.90;;;;;;4373747;32;20074;-70
2023/12/31 04:13:08;;;;;;;0.62;0.62;;;4.70;99.90;;;;;;4370906;32;20090;-70
2023/12/31 04:15:34;;;;;;;0.40;0.40;;;4.70;99.90;;;;;;4376424;32;20063;-70
2023/12/31 04:17:59;;;;;;;0.52;0.50;;;4.70;99.90;;;;;;4373529;32;20086;-70
2023/12/31 04:20:25;;;;;;;0.40;0.40;;;4.70;99.90;;;;;;4374966;32;20055;-71
2023/12/31 04:22:50;;;;;;;0.30;0.30;;;4.70;99.90;;;;;;4375171;32;20464;-73
2023/12/31 04:25:16;;;;;;;0.50;0.50;;;4.70;99.90;;;;;;4375781;32;20086;-72
2023/12/31 04:27:44;;;;;;;0.82;0.82;;;4.70;99.90;;;;;;4375412;32;20089;-72
2023/12/31 04:30:10;;;;;;;0.30;0.30;;;4.70;99.90;;;;;;4370956;32;20086;-72
2023/12/31 04:32:36;;;;;;;0.20;0.20;;;4.70;99.90;;;;;;4375846;32;20098;-72
2023/12/31 04:35:03;;;;;;;0.47;0.45;;;4.60;99.90;;;;;;4373810;32;20121;-71
2023/12/31 04:37:29;;;;;;;0.82;0.82;;;4.60;99.90;;;;;;4373083;32;20070;-72
2023/12/31 04:39:55;;;;;;;0.30;0.30;;;4.70;99.90;;;;;;4376162;32;20508;-72
2023/12/31 04:42:20;;;;;;;0.60;0.60;;;4.70;99.90;;;;;;4376818;32;20110;-72
2023/12/31 04:44:46;;;;;;;0.62;0.62;;;4.80;99.90;;;;;;4373344;32;20428;-72
2023/12/31 04:47:11;;;;;;;0.40;0.40;;;4.80;99.90;;;;;;4372736;32;20077;-74
2023/12/31 04:49:36;;;;;;;6.40;0.75;;;4.80;99.90;;;;;;4377024;32;20062;-74
2023/12/31 04:52:02;;;;;;;0.30;0.30;;;4.80;99.90;;;;;;4374580;32;20581;-74
2023/12/31 04:54:27;;;;;;;0.30;0.30;;;4.80;99.90;;;;;;4372820;32;20055;-74
2023/12/31 04:56:53;;;;;;;0.40;0.40;;;4.90;99.90;;;;;;4375356;32;20078;-74
2023/12/31 04:59:19;;;;;;;0.30;0.30;;;5.00;99.90;;;;;;4373931;32;20078;-74
2023/12/31 05:01:48;;;;;;;0.40;0.40;;;5.00;99.90;;;;;;4371819;32;20091;-73
2023/12/31 05:04:13;;;;;;;0.50;0.50;;;5.00;99.90;;;;;;4374657;32;20137;-75
2023/12/31 05:06:39;;;;;;;0.43;0.43;;;5.00;99.90;;;;;;4379349;32;20089;-74
2023/12/31 05:09:08;;;;;;;0.43;0.43;;;5.10;99.90;;;;;;4372598;32;20069;-74
2023/12/31 05:11:34;;;;;;;0.40;0.40;;;5.10;99.90;;;;;;4376100;32;20071;-74
2023/12/31 05:13:59;;;;;;;0.40;0.40;;;5.10;99.90;;;;;;4374809;32;20090;-74
2023/12/31 05:16:26;;;;;;;0.30;0.30;;;5.10;99.90;;;;;;4372439;32;20066;-74
2023/12/31 05:18:53;;;;;;;0.40;0.40;;;5.20;99.90;;;;;;4371946;32;20574;-74
2023/12/31 05:21:19;;;;;;;0.47;0.47;;;5.20;99.90;;;;;;4372448;32;20088;-73
2023/12/31 05:23:45;;;;;;;0.22;0.22;;;5.20;99.90;;;;;;4373253;32;20173;-74
2023/12/31 05:26:10;;;;;;;0.30;0.30;;;5.20;99.90;;;;;;4370029;32;20070;-73
2023/12/31 05:28:37;;;;;;;0.40;0.40;;;5.30;99.90;;;;;;4373768;32;20062;-73
2023/12/31 05:31:02;;;;;;;0.30;0.30;;;5.30;99.90;;;;;;4373948;32;20090;-73
2023/12/31 05:33:28;;;;;;;0.43;0.43;;;5.30;99.90;;;;;;4376489;32;20408;-73
2023/12/31 05:35:53;;;;;;;0.40;0.40;;;5.30;99.90;;;;;;4372091;32;20066;-73
2023/12/31 05:38:20;;;;;;;0.60;0.60;;;5.30;99.90;;;;;;4373252;32;20086;-73
2023/12/31 05:40:45;;;;;;;0.70;0.70;;;5.40;99.90;;;;;;4374337;32;20062;-73
2023/12/31 05:43:11;;;;;;;1.62;0.68;;;5.40;99.90;;;;;;4375982;32;20163;-73
2023/12/31 05:45:37;;;;;;;0.30;0.30;;;5.40;99.90;;;;;;4374127;32;20066;-74
2023/12/31 05:48:02;;;;;;;0.30;0.30;;;5.30;99.90;;;;;;4374348;32;20096;-74
2023/12/31 05:50:28;;;;;;;1.58;0.70;;;5.30;99.90;;;;;;4376993;32;20079;-74
2023/12/31 05:52:54;;;;;;;0.60;0.60;;;5.40;99.90;;;;;;4372641;32;20070;-74
2023/12/31 05:55:19;;;;;;;0.30;0.30;;;5.50;99.90;;;;;;4373880;32;20103;-73
2023/12/31 05:57:45;;;;;;;0.52;0.52;;;5.50;99.90;;;;;;4373394;32;20074;-73
2023/12/31 06:02:35;;;;;;;0.30;0.30;;;5.50;99.90;;;;;;4373784;32;20059;-74
2023/12/31 06:05:02;;;;;;;0.35;0.35;;;5.50;99.90;;;;;;4374870;32;20106;-72
2023/12/31 06:07:27;;;;;;;1.08;0.73;;;5.50;99.90;;;;;;4373668;32;20070;-72
2023/12/31 06:09:53;;;;;;;1.62;0.95;;;5.50;99.90;;;;;;4373986;32;20066;-72
2023/12/31 06:12:18;;;;;;;0.30;0.30;;;5.50;99.90;;;;;;4375106;32;20067;-72
2023/12/31 06:14:43;;;;;;;0.40;0.40;;;5.50;99.90;;;;;;4372498;32;20172;-72
2023/12/31 06:17:09;;;;;;;0.40;0.40;;;5.50;99.90;;;;;;4373091;32;20475;-72
2023/12/31 06:19:34;;;;;;;3.08;0.52;;;5.50;99.90;;;;;;4371726;32;20091;-73
2023/12/31 06:22:00;;;;;;;0.30;0.30;;;5.50;99.90;;;;;;4375080;32;20090;-72
2023/12/31 06:24:25;;;;;;;0.30;0.30;;;5.50;99.90;;;;;;4373792;32;20455;-73
2023/12/31 06:26:52;;;;;;;0.43;0.40;;;5.50;99.90;;;;;;4373836;32;20066;-69
2023/12/31 06:29:18;;;;;;;0.45;0.45;;;5.50;99.90;;;;;;4376628;32;20082;-70
2023/12/31 06:31:43;;;;;;;0.35;0.35;;;5.50;99.90;;;;;;4373997;32;20361;-70
2023/12/31 06:34:09;;;;;;;0.28;0.28;;;5.50;99.90;;;;;;4376500;32;20144;-70
2023/12/31 06:36:34;;;;;;;0.25;0.25;;;5.50;99.90;;;;;;4377253;32;20174;-72
2023/12/31 06:39:00;;;;;;;0.40;0.40;;;5.50;99.90;;;;;;4377831;32;20083;-70
2023/12/31 06:41:26;;;;;;;0.50;0.50;;;5.40;99.90;;;;;;4374901;32;20118;-70
2023/12/31 06:43:51;;;;;;;0.50;0.50;;;5.40;99.90;;;;;;4375313;32;20083;-70
2023/12/31 06:46:17;;;;;;;0.55;0.55;;;5.40;99.90;;;;;;4375712;32;20071;-71
2023/12/31 06:48:42;;;;;;;0.40;0.40;;;5.50;99.90;;;;;;4380392;32;20087;-69
2023/12/31 06:51:08;;;;;;;0.28;0.28;;;5.50;99.90;;;;;;4378536;32;20137;-69
2023/12/31 06:53:34;;;;;;;0.28;0.28;;;5.50;99.90;;;;;;4374067;32;20136;-71
2023/12/31 06:56:07;;;;;;;0.40;0.40;;;5.50;99.90;;;;;;4378487;32;20058;-70
2023/12/31 06:58:36;;;;;;;0.75;0.75;;;5.50;99.90;;;;;;4374792;32;20082;-70
2023/12/31 07:01:03;;;;;;;0.30;0.30;;;5.40;99.90;;;;;;4375583;32;20467;-70
2023/12/31 07:03:28;;;;;;;0.50;0.50;;;5.40;99.90;;;;;;4375898;32;20138;-71
2023/12/31 07:05:54;;;;;;;2.42;0.62;;;5.50;99.90;;;;;;4375957;32;20090;-70
2023/12/31 07:08:20;;;;;;;0.62;0.62;;;5.50;99.90;;;;;;4375375;32;20490;-70
2023/12/31 07:10:46;;;;;;;0.30;0.30;;;5.50;99.90;;;;;;4376216;32;20122;-71
2023/12/31 07:13:12;;;;;;;0.35;0.35;;;5.50;99.90;;;;;;4374158;32;20422;-70
2023/12/31 07:15:38;;;;;;;0.70;0.62;;;5.50;99.90;;;;;;4376489;32;20075;-70
2023/12/31 07:18:03;;;;;;;1.05;0.88;;;5.50;99.90;;;;;;4377482;32;20462;-70
2023/12/31 07:20:29;;;;;;;0.60;0.60;;;5.50;99.90;;;;;;4378034;32;20121;-70
2023/12/31 07:22:54;;;;;;;0.30;0.30;;;5.60;99.90;;;;;;4377025;32;20082;-71
2023/12/31 07:25:21;;;;;;;0.30;0.30;;;5.70;99.90;;;;;;4376620;32;21162;-69
2023/12/31 07:27:46;;;;;;;0.30;0.30;;;5.70;99.90;;;;;;4377766;32;20093;-71
2023/12/31 07:30:12;;;;;;;0.32;0.32;;;5.70;99.90;;;;;;4376292;32;20872;-70
2023/12/31 07:32:38;;;;;;;4.43;0.55;;;5.70;99.90;;;;;;4379242;32;20159;-71
2023/12/31 07:35:04;;;;;;;0.30;0.30;;;5.70;99.90;;;;;;4379673;32;20310;-70
2023/12/31 07:37:30;;;;;;;1.17;0.82;;;5.80;99.90;;;;;;4379997;32;20171;-69
2023/12/31 07:39:55;;;;;;;0.40;0.40;;;5.70;99.90;;;;;;4379404;32;20063;-70
2023/12/31 07:42:21;;;;;;;0.30;0.30;;;5.70;99.90;;;;;;4377302;32;20090;-70
2023/12/31 07:44:46;;;;;;;0.40;0.40;;;5.80;99.90;;;;;;4378525;32;20070;-70
2023/12/31 07:47:12;;;;;;;0.60;0.60;;;5.70;99.90;;;;;;4377207;32;20082;-70
2023/12/31 07:49:37;;;;;;;0.30;0.30;;;5.70;99.90;;;;;;4382058;32;20070;-70
2023/12/31 07:52:03;;;;;;;0.65;0.65;;;5.80;99.90;;;;;;4376047;32;20087;-71
2023/12/31 07:54:29;;;;;;;0.40;0.40;;;5.80;99.90;;;;;;4377949;32;20505;-70
2023/12/31 07:56:54;;;;;;;0.30;0.30;;;5.80;99.90;;;;;;4374547;32;20074;-70
2023/12/31 07:59:20;;;;;;;0.20;0.20;;;5.90;99.90;;;;;;4376879;32;20090;-70
2023/12/31 08:01:46;;;;;;;0.40;0.40;;;5.90;99.90;;;;;;4375932;32;20090;-71
2023/12/31 08:04:11;;;;;;;0.30;0.30;;;5.90;99.90;;;;;;4379528;32;20072;-70
2023/12/31 08:06:37;;;;;;;0.20;0.20;;;5.90;99.90;;;;;;4377154;32;20782;-70
2023/12/31 08:09:02;;;;;;;0.43;0.43;;;5.90;99.90;;;;;;4380976;32;20082;-71
2023/12/31 08:11:28;;;;;;;0.30;0.30;;;5.90;99.90;;;;;;4377661;32;20066;-70
2023/12/31 08:13:54;;;;;;;0.30;0.30;;;6.00;99.90;;;;;;4383328;32;20066;-69
2023/12/31 08:16:19;;;;;;;0.55;0.55;;;6.00;99.90;;;;;;4375748;32;20070;-72
2023/12/31 08:18:45;;;;;;;0.40;0.40;;;6.00;99.90;;;;;;4373910;32;20448;-72
2023/12/31 08:21:11;;;;;;;0.70;0.52;;;6.10;99.90;;;;;;4375105;32;20066;-72
2023/12/31 08:23:37;;;;;;;0.40;0.40;;;6.10;99.90;;;;;;4374902;32;20102;-72
2023/12/31 08:26:03;;;;;;;1.85;0.68;;;6.10;99.90;;;;;;4374178;32;20078;-72
2023/12/31 08:28:29;;;;;;;0.50;0.50;;;6.20;99.90;;;;;;4374163;32;20082;-73
2023/12/31 08:30:55;;;;;;;0.37;0.37;;;6.20;99.90;;;;;;4374076;32;20149;-73
2023/12/31 08:33:20;;;;;;;0.20;0.20;;;6.30;99.90;;;;;;4375617;32;20149;-72
2023/12/31 08:35:46;;;;;;;0.55;0.55;;;6.30;99.90;;;;;;4374140;32;20087;-72
2023/12/31 08:38:12;;;;;;;0.30;0.30;;;6.40;99.90;;;;;;4374951;32;20062;-72
2023/12/31 08:40:37;;;;;;;1.80;1.27;;;6.50;99.90;;;;;;4371467;32;20074;-73
2023/12/31 08:43:03;;;;;;;0.20;0.20;;;6.50;99.90;;;;;;4375634;32;20416;-73
2023/12/31 08:45:28;;;;;;;0.30;0.30;;;6.50;99.90;;;;;;4372855;32;20085;-73
2023/12/31 08:47:54;;;;;;;0.65;0.60;;;6.60;99.90;;;;;;4375240;32;20066;-72
2023/12/31 08:50:20;;;;;;;0.20;0.20;;;6.60;99.90;;;;;;4373035;32;20082;-72
2023/12/31 08:52:47;;;;;;;0.30;0.30;;;6.60;99.90;;;;;;4372202;32;20079;-72
2023/12/31 08:55:13;;;;;;;0.30;0.30;;;6.60;99.90;;;;;;4374179;32;20063;-71
2023/12/31 08:57:42;;;;;;;0.30;0.30;;;6.60;99.90;;;;;;4375996;32;20127;-73
2023/12/31 09:02:35;;;;;;;0.37;0.37;;;6.70;99.90;;;;;;4371230;32;20117;-71
2023/12/31 09:05:01;;;;;;;1.95;0.55;;;6.60;99.90;;;;;;4373995;32;20504;-72
2023/12/31 09:07:27;;;;;;;0.32;0.32;;;6.70;99.90;;;;;;4372280;32;20067;-72
2023/12/31 09:09:52;;;;;;;0.30;0.30;;;6.70;99.90;;;;;;4374019;32;20216;-73
2023/12/31 09:12:18;;;;;;;0.30;0.30;;;6.80;99.90;;;;;;4375653;32;20078;-72
2023/12/31 09:14:43;;;;;;;0.30;0.30;;;6.70;99.90;;;;;;4372898;32;20063;-71
2023/12/31 09:17:10;;;;;;;0.40;0.40;;;6.70;99.90;;;;;;4373871;32;20095;-71
2023/12/31 09:19:37;;;;;;;0.25;0.25;;;6.70;99.90;;;;;;4375496;32;20596;-72
2023/12/31 09:22:02;;;;;;;0.30;0.30;;;6.80;99.90;;;;;;4374072;32;20518;-71
2023/12/31 09:24:29;;;;;;;0.30;0.30;;;6.80;99.90;;;;;;4375082;32;20078;-71
2023/12/31 09:26:54;;;;;;;0.37;0.37;;;6.80;99.90;;;;;;4371170;32;20780;-73
2023/12/31 09:29:20;;;;;;;0.40;0.40;;;6.80;99.90;;;;;;4374037;32;20077;-73
2023/12/31 09:31:45;;;;;;;0.40;0.40;;;6.70;99.90;;;;;;4376377;32;20565;-73
2023/12/31 09:34:11;;;;;;;0.40;0.40;;;6.80;99.90;;;;;;4372166;32;20095;-73
2023/12/31 09:36:36;;;;;;;0.30;0.30;;;6.70;99.90;;;;;;4372239;32;20537;-73
2023/12/31 09:39:02;;;;;;;0.40;0.40;;;6.70;99.90;;;;;;4371664;32;20074;-74
2023/12/31 09:41:29;;;;;;;0.30;0.30;;;6.80;99.90;;;;;;4369652;32;20224;-73
2023/12/31 09:43:54;;;;;;;0.50;0.50;;;6.80;99.90;;;;;;4372007;32;20479;-74
2023/12/31 09:46:21;;;;;;;15.45;0.82;;;6.80;99.90;;;;;;4371070;32;20132;-74
2023/12/31 09:48:49;;;;;;;0.37;0.37;;;6.90;99.90;;;;;;4372361;32;20490;-73
2023/12/31 09:51:17;;;;;;;0.50;0.50;;;6.90;99.90;;;;;;4371573;32;20070;-73
2023/12/31 09:53:44;;;;;;;0.28;0.28;;;6.90;99.90;;;;;;4374075;32;20075;-74
2023/12/31 09:56:10;;;;;;;5.10;1.23;;;7.00;99.90;;;;;;4372016;32;20086;-72
2023/12/31 09:58:36;;;;;;;0.30;0.30;;;7.00;99.90;;;;;;4374971;32;20715;-73
2023/12/31 10:01:02;;;;;;;0.40;0.40;;;7.00;99.90;;;;;;4376807;32;20075;-73
2023/12/31 10:03:27;;;;;;;1.48;0.45;;;7.00;99.90;;;;;;4373371;32;20074;-73
2023/12/31 10:05:54;;;;;;;0.20;0.20;;;7.00;99.90;;;;;;4374053;32;20091;-73
2023/12/31 10:08:21;;;;;;;0.47;0.47;;;7.10;99.90;;;;;;4376688;32;20487;-73
2023/12/31 10:10:48;;;;;;;0.40;0.40;;;7.10;99.90;;;;;;4373909;32;20090;-73
2023/12/31 10:13:16;;;;;;;0.30;0.30;;;7.10;99.90;;;;;;4373924;32;20078;-73
2023/12/31 10:15:42;;;;;;;0.40;0.40;;;7.20;99.90;;;;;;4375501;32;20125;-74
2023/12/31 10:18:08;;;;;;;0.35;0.35;;;7.20;99.90;;;;;;4374867;32;20120;-73
2023/12/31 10:20:36;;;;;;;2.00;0.60;;;7.20;99.90;;;;;;4375033;32;20063;-73
2023/12/31 10:23:02;;;;;;;1.02;0.90;;;7.20;99.90;;;;;;4372220;32;20130;-73
2023/12/31 10:25:28;;;;;;;15.50;2.78;;;7.20;99.90;;;;;;4370878;32;20448;-73
2023/12/31 10:27:54;;;;;;;0.30;0.30;;;7.20;99.90;;;;;;4372709;32;20078;-73
2023/12/31 10:30:21;;;;;;;0.40;0.40;;;7.30;99.90;;;;;;4369671;32;20090;-73
2023/12/31 10:32:47;;;;;;;0.43;0.43;;;7.30;99.90;;;;;;4367243;32;20067;-73
2023/12/31 10:35:17;;;;;;;0.30;0.30;;;7.30;99.90;;;;;;4369328;32;21161;-73
2023/12/31 10:37:43;;;;;;;0.40;0.40;;;7.40;99.90;;;;;;4370356;32;20107;-71
2023/12/31 10:40:24;;;;;;;0.30;0.30;;;7.40;99.90;;;;;;4372560;32;20125;-71
2023/12/31 10:42:55;;;;;;;0.40;0.40;;;7.50;99.90;;;;;;4373040;32;20066;-72
2023/12/31 10:45:21;;;;;;;0.40;0.40;;;7.40;99.90;;;;;;4373880;32;20225;-71
2023/12/31 10:47:51;;;;;;;0.30;0.30;;;7.50;99.90;;;;;;4372166;32;20557;-71
2023/12/31 10:50:21;;;;;;;0.40;0.40;;;7.50;99.90;;;;;;4373216;32;20419;-70
2023/12/31 10:52:50;;;;;;;0.50;0.50;;;7.60;99.90;;;;;;4374495;32;20084;-71
2023/12/31 10:55:16;;;;;;;0.40;0.40;;;7.60;99.90;;;;;;4374670;32;20067;-71
2023/12/31 10:57:43;;;;;;;0.35;0.35;;;7.70;99.90;;;;;;4374499;32;20066;-71
2023/12/31 11:02:35;;;;;;;0.43;0.43;;;7.80;99.90;;;;;;4376208;32;20103;-71
2023/12/31 11:05:03;;;;;;;0.40;0.40;;;7.80;99.90;;;;;;4373897;32;20067;-71
2023/12/31 11:07:29;;;;;;;0.30;0.30;;;7.80;99.90;;;;;;4373613;32;20082;-71
2023/12/31 11:09:56;;;;;;;0.30;0.30;;;7.90;99.90;;;;;;4370840;32;20091;-71
2023/12/31 11:12:22;;;;;;;0.30;0.30;;;7.90;99.90;;;;;;4368443;32;20477;-71
2023/12/31 11:14:54;;;;;;;0.50;0.50;;;8.00;99.90;;;;;;4371822;32;20063;-72
2023/12/31 11:17:32;;;;;;;0.40;0.40;;;7.90;99.90;;;;;;4373256;32;20090;-72
2023/12/31 11:20:11;;;;;;;1.05;0.62;;;7.90;99.90;;;;;;4372844;32;20564;-71
2023/12/31 11:22:56;;;;;;;0.40;0.40;;;8.00;99.90;;;;;;4369642;32;20666;-73
2023/12/31 11:25:24;;;;;;;0.50;0.40;;;8.00;99.90;;;;;;4371634;32;20094;-73
2023/12/31 11:27:51;;;;;;;0.30;0.30;;;8.00;99.90;;;;;;4371622;32;20141;-72
2023/12/31 11:30:45;;;;;;;0.30;0.30;;;8.00;99.90;;;;;;4372479;32;20074;-72
2023/12/31 11:33:11;;;;;;;0.40;0.40;;;8.10;99.90;;;;;;4370445;32;20066;-72
2023/12/31 11:35:41;;;;;;;0.30;0.30;;;8.10;99.90;;;;;;4371365;32;20102;-71
2023/12/31 11:38:06;;;;;;;0.50;0.50;;;8.00;99.90;;;;;;4370822;32;20078;-71
2023/12/31 11:40:36;;;;;;;0.50;0.50;;;8.00;99.90;;;;;;4372490;32;20104;-72
2023/12/31 11:43:10;;;;;;;0.30;0.30;;;8.00;99.90;;;;;;4369168;32;20062;-72
2023/12/31 11:45:45;;;;;;;0.30;0.30;;;8.00;99.90;;;;;;4370408;32;21220;-72
2023/12/31 11:48:26;;;;;;;0.30;0.30;;;8.00;99.90;;;;;;4369605;32;20137;-73
2023/12/31 11:50:54;;;;;;;0.40;0.40;;;8.00;99.90;;;;;;4370421;32;82683;-73
2023/12/31 11:53:22;;;;;;;1.27;0.55;;;7.90;99.90;;;;;;4371193;32;20088;-73
2023/12/31 11:55:57;;;;;;;0.45;0.45;;;7.90;99.90;;;;;;4371875;32;20078;-73
2023/12/31 11:58:22;;;;;;;0.43;0.43;;;7.90;99.90;;;;;;4369415;32;20106;-72
2023/12/31 12:00:50;;;;;;;0.65;0.52;;;8.00;99.90;;;;;;4370630;32;20062;-73
2023/12/31 12:03:17;;;;;;;1.35;0.98;;;8.00;99.90;;;;;;4371902;32;20078;-74
2023/12/31 12:05:45;;;;;;;6.50;0.50;;;8.10;99.90;;;;;;4368438;32;20083;-74
2023/12/31 12:08:11;;;;;;;2.22;0.68;;;8.10;99.90;;;;;;4369662;32;20078;-73
2023/12/31 12:10:36;;;;;;;24.00;1.05;;;8.10;99.90;;;;;;4368779;32;21073;-74
2023/12/31 12:13:03;;;;;;;0.22;0.22;;;8.20;99.90;;;;;;4371627;32;20070;-74
2023/12/31 12:15:34;;;;;;;0.37;0.37;;;8.20;99.90;;;;;;4370077;32;21601;-73
2023/12/31 12:17:59;;;;;;;0.50;0.50;;;8.20;99.90;;;;;;4371285;32;21079;-71
2023/12/31 12:20:25;;;;;;;4.70;0.60;;;8.30;99.90;;;;;;4375665;32;20062;-72
2023/12/31 12:22:51;;;;;;;0.93;0.85;;;8.30;99.90;;;;;;4373884;32;20078;-70
2023/12/31 12:25:17;;;;;;;0.50;0.50;;;8.40;99.90;;;;;;4371183;32;20075;-71
2023/12/31 12:27:42;;;;;;;0.30;0.30;;;8.40;99.90;;;;;;4374309;32;20078;-71
2023/12/31 12:30:08;;;;;;;0.30;0.30;;;8.40;99.90;;;;;;4373670;32;20562;-71
2023/12/31 12:32:35;;;;;;;4.30;1.23;;;8.40;99.90;;;;;;4375616;32;20082;-70
2023/12/31 12:35:02;;;;;;;0.57;0.57;;;8.40;99.90;;;;;;4378119;32;20074;-70
2023/12/31 12:37:29;;;;;;;0.50;0.50;;;8.50;99.90;;;;;;4375139;32;20095;-70
2023/12/31 12:39:55;;;;;;;0.30;0.30;;;8.50;99.90;;;;;;4378930;32;20538;-71
2023/12/31 12:42:25;;;;;;;0.50;0.50;;;8.50;99.90;;;;;;4378038;32;20070;-70
2023/12/31 12:44:50;;;;;;;0.30;0.30;;;8.50;99.90;;;;;;4378607;32;20094;-73
2023/12/31 12:47:17;;;;;;;1.20;0.95;;;8.50;99.90;;;;;;4378163;32;20079;-71
2023/12/31 12:49:43;;;;;;;0.40;0.40;;;8.50;99.90;;;;;;4376700;32;20078;-70
2023/12/31 12:52:08;;;;;;;0.40;0.40;;;8.40;99.90;;;;;;4377887;32;20137;-71
2023/12/31 12:54:34;;;;;;;0.52;0.52;;;8.40;99.90;;;;;;4378643;32;20082;-71
2023/12/31 12:56:59;;;;;;;0.37;0.37;;;8.50;99.90;;;;;;4377567;32;20082;-71
2023/12/31 12:59:25;;;;;;;0.30;0.30;;;8.40;99.90;;;;;;4376017;32;20074;-71
2023/12/31 13:01:50;;;;;;;0.22;0.22;;;8.40;99.90;;;;;;4375819;32;20092;-73